Time;durP1;ratioP1;P1;durP2;ratioP2;P2;SDS_P1;SDS_P2;PMS_P1;PMS_P2;Temp;Humidity;BMP_temperature;BMP_pressure;BME280_temperature;BME280_humidity;BME280_pressure;Samples;Min_cycle;Max_cycle;Signal;HPM_P1;HPM_P2
2021/01/16 00:01:16;;;;;;;23.60;12.63;;;6.80;65.70;;;;;;5008977;28;20033;-70
2021/01/16 00:03:41;;;;;;;20.90;11.73;;;6.70;65.60;;;;;;5008829;28;20070;-69
2021/01/16 00:06:07;;;;;;;19.53;11.43;;;6.80;65.70;;;;;;4987659;28;20361;-69
2021/01/16 00:08:32;;;;;;;22.07;12.33;;;6.80;65.60;;;;;;5009141;28;20030;-69
2021/01/16 00:11:00;;;;;;;18.53;12.60;;;6.80;65.50;;;;;;4997032;28;20509;-69
2021/01/16 00:13:33;;;;;;;21.33;12.20;;;6.80;65.30;;;;;;5000036;28;20098;-69
2021/01/16 00:15:59;;;;;;;;;;;6.80;65.90;;;;;;4997748;28;20096;-70
2021/01/16 00:18:26;;;;;;;20.67;12.83;;;6.80;65.20;;;;;;5004665;28;19910;-69
2021/01/16 00:20:53;;;;;;;18.93;11.53;;;6.70;65.40;;;;;;5008026;28;20036;-69
2021/01/16 00:23:22;;;;;;;23.07;12.97;;;6.60;65.70;;;;;;5002888;28;20034;-69
2021/01/16 00:25:48;;;;;;;21.17;12.00;;;6.60;65.90;;;;;;5005757;28;20278;-69
2021/01/16 00:28:16;;;;;;;24.13;13.83;;;6.60;65.90;;;;;;5006910;28;20516;-70
2021/01/16 00:30:42;;;;;;;23.23;12.47;;;6.60;65.90;;;;;;5008647;28;20084;-69
2021/01/16 00:33:35;;;;;;;22.07;12.37;;;6.70;65.90;;;;;;5006807;28;20022;-69
2021/01/16 00:36:03;;;;;;;20.80;11.87;;;6.70;65.60;;;;;;5008935;28;20042;-69
2021/01/16 00:38:30;;;;;;;19.67;11.40;;;6.70;65.60;;;;;;5009478;28;20034;-70
2021/01/16 00:40:56;;;;;;;19.87;11.47;;;6.70;65.60;;;;;;5009667;28;20157;-69
2021/01/16 00:43:22;;;;;;;20.50;12.53;;;6.70;65.60;;;;;;5007916;28;20049;-69
2021/01/16 00:45:50;;;;;;;22.20;12.63;;;6.70;65.40;;;;;;5000253;28;20105;-69
2021/01/16 00:48:19;;;;;;;20.13;12.87;;;6.70;65.40;;;;;;5005607;28;20389;-71
2021/01/16 00:50:45;;;;;;;19.60;11.47;;;6.70;65.50;;;;;;5008650;28;20038;-69
2021/01/16 00:53:11;;;;;;;20.47;11.63;;;6.70;65.40;;;;;;5008050;28;20029;-69
2021/01/16 00:55:37;;;;;;;19.77;10.13;;;6.70;65.20;;;;;;5007362;28;20034;-69
2021/01/16 00:58:11;;;;;;;19.37;10.90;;;6.70;65.00;;;;;;4998707;28;20397;-70
2021/01/16 01:00:37;;;;;;;;;;;6.70;65.60;;;;;;5005513;28;20030;-69
2021/01/16 01:03:03;;;;;;;20.27;10.43;;;6.70;64.70;;;;;;5008443;28;19924;-70
2021/01/16 01:05:29;;;;;;;17.17;9.60;;;6.70;64.90;;;;;;5017754;28;20040;-69
2021/01/16 01:07:55;;;;;;;21.27;10.87;;;6.70;64.90;;;;;;5007466;28;20415;-69
2021/01/16 01:10:33;;;;;;;19.63;11.80;;;6.70;64.90;;;;;;5001078;28;20140;-69
2021/01/16 01:12:59;;;;;;;19.97;11.30;;;6.70;64.90;;;;;;5000181;28;20034;-69
2021/01/16 01:15:26;;;;;;;18.20;10.93;;;6.70;64.80;;;;;;5002781;28;20045;-69
2021/01/16 01:17:59;;;;;;;22.17;13.37;;;6.70;64.80;;;;;;5005033;28;20027;-69
2021/01/16 01:20:26;;;;;;;17.45;10.43;;;6.70;64.50;;;;;;5006275;28;20029;-69
2021/01/16 01:22:52;;;;;;;20.43;11.73;;;6.70;64.50;;;;;;5021237;28;20030;-69
2021/01/16 01:25:18;;;;;;;20.70;12.00;;;6.70;64.40;;;;;;5007913;28;20034;-69
2021/01/16 01:27:49;;;;;;;18.93;10.23;;;6.70;64.40;;;;;;5023504;28;20107;-69
2021/01/16 01:30:15;;;;;;;19.37;12.70;;;6.70;64.70;;;;;;5023936;28;20049;-70
2021/01/16 01:32:44;;;;;;;17.47;10.13;;;6.70;64.60;;;;;;5013427;28;20088;-70
2021/01/16 01:35:10;;;;;;;17.97;10.97;;;6.70;64.50;;;;;;5007178;28;20059;-69
2021/01/16 01:37:44;;;;;;;16.50;10.03;;;6.70;64.30;;;;;;4994991;28;20133;-69
2021/01/16 01:40:12;;;;;;;18.50;11.37;;;6.80;64.20;;;;;;5030170;28;20033;-69
2021/01/16 01:42:38;;;;;;;16.90;10.23;;;6.80;64.00;;;;;;5015425;28;20042;-69
2021/01/16 01:45:06;;;;;;;19.63;10.90;;;6.80;64.20;;;;;;5021968;28;20026;-69
2021/01/16 01:47:34;;;;;;;17.63;10.63;;;6.80;64.20;;;;;;5010755;28;20042;-69
2021/01/16 01:49:59;;;;;;;18.83;10.87;;;6.80;64.30;;;;;;5012898;28;20056;-69
2021/01/16 01:52:26;;;;;;;17.50;9.50;;;6.80;64.00;;;;;;5018788;28;20037;-69
2021/01/16 01:54:52;;;;;;;16.40;10.00;;;6.80;63.50;;;;;;5012409;28;20108;-69
2021/01/16 01:57:20;;;;;;;18.87;10.70;;;6.70;63.40;;;;;;5011302;28;20471;-70
2021/01/16 01:59:46;;;;;;;18.30;10.20;;;6.70;63.30;;;;;;5015360;28;20040;-70
2021/01/16 02:02:14;;;;;;;19.50;12.37;;;6.80;63.20;;;;;;5016020;28;20038;-70
2021/01/16 02:04:43;;;;;;;14.47;9.10;;;6.70;63.20;;;;;;5017843;28;20030;-70
2021/01/16 02:07:28;;;;;;;17.30;10.50;;;6.70;63.20;;;;;;5017803;28;20114;-69
2021/01/16 02:09:54;;;;;;;16.23;9.63;;;6.70;63.00;;;;;;5014946;28;20400;-70
2021/01/16 02:12:23;;;;;;;17.57;9.83;;;6.70;62.90;;;;;;5016968;28;20394;-70
2021/01/16 02:15:33;;;;;;;17.43;10.30;;;6.80;62.50;;;;;;5013916;28;20026;-70
2021/01/16 02:18:25;;;;;;;19.97;10.87;;;6.70;61.90;;;;;;5024168;28;20110;-70
2021/01/16 02:20:53;;;;;;;16.93;9.17;;;6.70;62.00;;;;;;5012137;28;20037;-69
2021/01/16 02:23:23;;;;;;;16.10;8.63;;;6.80;61.80;;;;;;5012273;28;20034;-70
2021/01/16 02:26:12;;;;;;;19.00;11.47;;;6.70;61.70;;;;;;5011752;28;20345;-69
2021/01/16 02:28:46;;;;;;;16.47;9.40;;;6.70;61.90;;;;;;5010136;28;20105;-70
2021/01/16 02:31:12;;;;;;;;;;;6.70;62.60;;;;;;5007385;28;20506;-70
2021/01/16 02:33:41;;;;;;;19.20;10.83;;;6.70;61.60;;;;;;5010301;28;20418;-69
2021/01/16 02:36:58;;;;;;;16.33;9.53;;;6.80;61.80;;;;;;5012560;28;20034;-69
2021/01/16 02:40:02;;;;;;;16.43;8.87;;;6.70;61.60;;;;;;5011744;28;20042;-70
2021/01/16 02:42:43;;;;;;;14.13;8.98;;;6.70;61.50;;;;;;5001267;28;20034;-69
2021/01/16 02:45:16;;;;;;;15.77;9.03;;;6.70;61.50;;;;;;5006572;28;20030;-69
2021/01/16 02:47:54;;;;;;;;;;;6.70;62.10;;;;;;5019435;28;20029;-70
2021/01/16 02:50:22;;;;;;;14.43;8.40;;;6.60;61.00;;;;;;5029809;28;19963;-70
2021/01/16 02:52:48;;;;;;;18.00;10.17;;;6.50;61.50;;;;;;5027140;28;20121;-70
2021/01/16 02:55:17;;;;;;;18.17;10.53;;;6.60;61.80;;;;;;5015379;28;20034;-70
2021/01/16 02:57:43;;;;;;;16.67;9.77;;;6.60;61.90;;;;;;5010672;28;20032;-69
2021/01/16 03:00:12;;;;;;;17.67;9.80;;;6.60;61.90;;;;;;5016655;28;20037;-69
2021/01/16 03:02:38;;;;;;;18.43;10.40;;;6.60;61.70;;;;;;5003470;28;20026;-71
2021/01/16 03:05:05;;;;;;;16.07;9.00;;;6.70;61.80;;;;;;5001798;28;20038;-70
2021/01/16 03:07:32;;;;;;;17.37;9.40;;;6.60;61.70;;;;;;4995939;28;20061;-69
2021/01/16 03:10:03;;;;;;;17.30;9.20;;;6.60;61.60;;;;;;5007827;28;20038;-70
2021/01/16 03:12:30;;;;;;;15.80;9.20;;;6.60;61.70;;;;;;5010450;28;20112;-70
2021/01/16 03:14:57;;;;;;;18.73;9.93;;;6.60;62.00;;;;;;5010878;28;20026;-70
2021/01/16 03:17:35;;;;;;;18.80;10.67;;;6.40;61.80;;;;;;5005919;28;20086;-70
2021/01/16 03:20:02;;;;;;;16.23;9.93;;;6.30;62.40;;;;;;5003206;28;20033;-69
2021/01/16 03:22:28;;;;;;;18.43;11.53;;;6.30;62.70;;;;;;5004292;28;20180;-69
2021/01/16 03:24:57;;;;;;;17.47;9.67;;;6.30;62.60;;;;;;5000882;28;20079;-70
2021/01/16 03:27:25;;;;;;;19.30;10.57;;;6.40;62.50;;;;;;5005741;28;20045;-70
2021/01/16 03:29:51;;;;;;;15.67;8.70;;;6.50;62.50;;;;;;5000675;28;20060;-69
2021/01/16 03:32:18;;;;;;;17.00;9.37;;;6.50;62.50;;;;;;4981564;28;20038;-70
2021/01/16 03:34:45;;;;;;;16.97;10.07;;;6.50;62.60;;;;;;5003609;28;20109;-71
2021/01/16 03:37:12;;;;;;;18.30;10.40;;;6.60;62.30;;;;;;5023263;28;20037;-69
2021/01/16 03:39:38;;;;;;;15.97;9.47;;;6.60;62.20;;;;;;5008966;28;20026;-70
2021/01/16 03:42:05;;;;;;;17.40;9.37;;;6.60;62.10;;;;;;5008609;28;20030;-69
2021/01/16 03:44:31;;;;;;;16.87;9.73;;;6.70;62.30;;;;;;5007829;28;20125;-70
2021/01/16 03:46:57;;;;;;;18.50;10.27;;;6.70;62.30;;;;;;5000844;28;20109;-70
2021/01/16 03:49:22;;;;;;;18.03;10.33;;;6.70;62.20;;;;;;5008310;28;20133;-70
2021/01/16 03:51:48;;;;;;;18.33;10.17;;;6.60;62.20;;;;;;5009135;28;20460;-70
2021/01/16 03:54:14;;;;;;;16.50;9.77;;;6.70;62.30;;;;;;5007496;28;20027;-70
2021/01/16 03:56:40;;;;;;;18.03;10.73;;;6.70;62.20;;;;;;5008435;28;20038;-70
2021/01/16 03:59:05;;;;;;;16.97;9.57;;;6.70;62.40;;;;;;5010892;28;20034;-70
2021/01/16 04:01:32;;;;;;;19.53;11.27;;;6.70;62.40;;;;;;5009821;28;20145;-70
2021/01/16 04:03:59;;;;;;;16.80;9.53;;;6.70;62.50;;;;;;4990699;28;20418;-70
2021/01/16 04:06:24;;;;;;;19.40;11.30;;;6.70;62.50;;;;;;5004914;28;20372;-70
2021/01/16 04:08:50;;;;;;;18.20;10.07;;;6.70;62.50;;;;;;4989774;28;20038;-72
2021/01/16 04:11:16;;;;;;;17.47;10.50;;;6.70;62.50;;;;;;5004165;28;20034;-69
2021/01/16 04:13:42;;;;;;;18.03;10.60;;;6.70;62.50;;;;;;5005689;28;20124;-70
2021/01/16 04:16:07;;;;;;;19.30;10.60;;;6.70;62.40;;;;;;5003075;28;20045;-70
2021/01/16 04:18:34;;;;;;;16.27;10.80;;;6.70;62.40;;;;;;4999253;28;20353;-70
2021/01/16 04:21:00;;;;;;;17.03;9.53;;;6.70;62.50;;;;;;5005174;28;20060;-70
2021/01/16 04:23:25;;;;;;;19.67;9.50;;;6.60;62.70;;;;;;5009711;28;20106;-70
2021/01/16 04:25:51;;;;;;;17.93;10.33;;;6.60;62.80;;;;;;5008239;28;20521;-69
2021/01/16 04:28:17;;;;;;;17.97;10.17;;;6.60;62.70;;;;;;5010189;28;20196;-70
2021/01/16 04:30:42;;;;;;;20.10;11.70;;;6.60;62.60;;;;;;5007864;28;20479;-70
2021/01/16 04:33:08;;;;;;;18.90;9.67;;;6.60;62.70;;;;;;5008701;28;20547;-70
2021/01/16 04:35:34;;;;;;;18.37;10.63;;;6.60;62.80;;;;;;5007025;28;20029;-70
2021/01/16 04:38:00;;;;;;;17.07;9.73;;;6.60;62.90;;;;;;5008443;28;20033;-69
2021/01/16 04:40:27;;;;;;;19.47;10.80;;;6.60;62.90;;;;;;5007469;28;20103;-70
2021/01/16 04:42:54;;;;;;;21.83;12.33;;;6.60;63.00;;;;;;5001129;28;20117;-70
2021/01/16 04:45:20;;;;;;;18.37;9.87;;;6.60;62.90;;;;;;5007159;28;20053;-70
2021/01/16 04:47:49;;;;;;;18.07;11.13;;;6.60;62.80;;;;;;4993498;28;20472;-69
2021/01/16 04:50:18;;;;;;;20.37;12.87;;;6.60;62.90;;;;;;5003221;28;20026;-70
2021/01/16 04:52:44;;;;;;;18.67;10.47;;;6.60;63.00;;;;;;5008945;28;20033;-69
2021/01/16 04:55:14;;;;;;;21.07;11.20;;;6.50;63.00;;;;;;4983916;28;20032;-69
2021/01/16 04:57:41;;;;;;;19.00;10.43;;;6.50;63.10;;;;;;5008798;28;20126;-70
2021/01/16 05:00:09;;;;;;;19.50;11.60;;;6.50;63.30;;;;;;5007818;28;20037;-69
2021/01/16 05:02:39;;;;;;;19.10;11.30;;;6.50;63.30;;;;;;4995795;28;20100;-70
2021/01/16 05:05:07;;;;;;;23.00;11.90;;;6.50;63.10;;;;;;5006592;28;20475;-70
2021/01/16 05:07:33;;;;;;;18.10;10.63;;;6.60;63.00;;;;;;5012774;28;20038;-69
2021/01/16 05:10:00;;;;;;;20.13;11.37;;;6.60;63.00;;;;;;5013562;28;20448;-70
2021/01/16 05:12:38;;;;;;;16.47;10.40;;;6.60;62.90;;;;;;5011074;28;20034;-70
2021/01/16 05:15:05;;;;;;;18.27;10.10;;;6.60;62.90;;;;;;5011804;28;20030;-69
2021/01/16 05:17:39;;;;;;;18.17;10.67;;;6.60;63.00;;;;;;5013621;28;20452;-69
2021/01/16 05:20:07;;;;;;;17.53;10.10;;;6.60;63.00;;;;;;5009946;28;20033;-70
2021/01/16 05:22:32;;;;;;;17.73;10.70;;;6.60;62.80;;;;;;5013351;28;20506;-69
2021/01/16 05:25:01;;;;;;;21.27;10.43;;;6.60;62.70;;;;;;5009888;28;20054;-70
2021/01/16 05:27:33;;;;;;;20.07;11.60;;;6.70;62.70;;;;;;5012662;28;20113;-70
2021/01/16 05:30:05;;;;;;;16.90;9.60;;;6.70;62.70;;;;;;5011006;28;20064;-69
2021/01/16 05:32:31;;;;;;;20.57;12.17;;;6.70;62.60;;;;;;5012061;28;20124;-69
2021/01/16 05:35:18;;;;;;;18.27;10.93;;;6.70;62.70;;;;;;5007629;28;20061;-70
2021/01/16 05:37:46;;;;;;;18.23;11.60;;;6.70;62.60;;;;;;5006820;28;20483;-70
2021/01/16 05:40:12;;;;;;;20.33;11.13;;;6.70;62.60;;;;;;5010579;28;20034;-69
2021/01/16 05:42:39;;;;;;;21.60;13.30;;;6.60;62.70;;;;;;5011378;28;20052;-70
2021/01/16 05:45:10;;;;;;;19.83;11.83;;;6.70;62.70;;;;;;5001641;28;20035;-70
2021/01/16 05:47:40;;;;;;;18.80;9.67;;;6.70;62.70;;;;;;4999825;28;20026;-69
2021/01/16 05:50:08;;;;;;;23.47;11.57;;;6.70;62.70;;;;;;4990327;28;20129;-69
2021/01/16 05:52:36;;;;;;;20.13;11.70;;;6.70;62.60;;;;;;5009584;28;20042;-69
2021/01/16 05:55:02;;;;;;;17.33;9.77;;;6.60;62.70;;;;;;5003689;28;20030;-70
2021/01/16 05:57:27;;;;;;;18.40;11.70;;;6.70;62.50;;;;;;5004700;28;20037;-70
2021/01/16 06:00:01;;;;;;;17.37;11.23;;;6.70;62.50;;;;;;5007367;28;20110;-69
2021/01/16 06:02:31;;;;;;;20.05;11.77;;;6.60;62.50;;;;;;5003950;28;20157;-70
2021/01/16 06:04:58;;;;;;;19.13;11.47;;;6.60;62.60;;;;;;5011686;28;20139;-69
2021/01/16 06:07:24;;;;;;;19.07;10.63;;;6.60;62.70;;;;;;5010227;28;20064;-69
2021/01/16 06:09:55;;;;;;;19.17;10.57;;;6.60;62.70;;;;;;5010764;28;20044;-68
2021/01/16 06:12:22;;;;;;;19.50;12.00;;;6.70;62.70;;;;;;5007718;28;20041;-68
2021/01/16 06:14:49;;;;;;;20.93;12.17;;;6.60;62.40;;;;;;5009893;28;20045;-68
2021/01/16 06:17:17;;;;;;;18.30;11.00;;;6.60;62.50;;;;;;5001064;28;20111;-68
2021/01/16 06:19:45;;;;;;;17.40;10.27;;;6.60;62.70;;;;;;5008719;28;20452;-68
2021/01/16 06:22:12;;;;;;;19.17;11.00;;;6.60;62.70;;;;;;5007877;28;20022;-68
2021/01/16 06:24:39;;;;;;;21.77;11.17;;;6.60;62.60;;;;;;5008399;28;20038;-68
2021/01/16 06:27:05;;;;;;;19.13;10.93;;;6.60;62.70;;;;;;5010375;28;20052;-68
2021/01/16 06:29:35;;;;;;;18.53;10.20;;;6.60;62.70;;;;;;5006931;28;20517;-68
2021/01/16 06:32:11;;;;;;;19.03;10.47;;;6.60;62.70;;;;;;5009114;28;20056;-68
2021/01/16 06:34:43;;;;;;;18.10;10.47;;;6.70;62.50;;;;;;5005709;28;20494;-68
2021/01/16 06:37:15;;;;;;;18.27;10.70;;;6.60;62.40;;;;;;5007199;28;20017;-68
2021/01/16 06:39:45;;;;;;;19.77;11.13;;;6.60;62.40;;;;;;5009084;28;20462;-68
2021/01/16 06:42:21;;;;;;;19.87;10.70;;;6.60;62.40;;;;;;5010898;28;20038;-68
2021/01/16 06:44:47;;;;;;;19.60;11.50;;;6.60;62.60;;;;;;5009063;28;22060;-68
2021/01/16 06:47:12;;;;;;;19.70;11.03;;;6.60;62.60;;;;;;5009658;28;20113;-68
2021/01/16 06:49:38;;;;;;;18.40;11.87;;;6.70;62.50;;;;;;5004418;28;20402;-68
2021/01/16 06:52:06;;;;;;;21.27;10.93;;;6.60;62.50;;;;;;5007745;28;20054;-68
2021/01/16 06:54:36;;;;;;;16.67;10.37;;;6.70;62.50;;;;;;5010541;28;20503;-69
2021/01/16 06:57:10;;;;;;;17.57;10.50;;;6.70;62.30;;;;;;5001756;28;20030;-68
2021/01/16 06:59:38;;;;;;;20.33;11.07;;;6.70;62.30;;;;;;5009927;28;20036;-68
2021/01/16 07:02:30;;;;;;;19.30;12.13;;;6.70;62.00;;;;;;5001347;28;20042;-68
2021/01/16 07:05:20;;;;;;;17.30;10.57;;;6.70;62.30;;;;;;5007310;28;20077;-68
2021/01/16 07:07:48;;;;;;;19.03;11.97;;;6.60;62.20;;;;;;5010279;28;20030;-68
2021/01/16 07:10:21;;;;;;;20.00;11.50;;;6.60;62.40;;;;;;5008116;28;20034;-68
2021/01/16 07:12:49;;;;;;;15.90;9.80;;;6.60;62.40;;;;;;5006091;28;20025;-68
2021/01/16 07:15:16;;;;;;;25.07;12.20;;;6.60;62.50;;;;;;5009066;28;20041;-68
2021/01/16 07:17:43;;;;;;;19.00;10.90;;;6.60;62.60;;;;;;5008770;28;20375;-68
2021/01/16 07:20:09;;;;;;;18.60;10.43;;;6.60;62.50;;;;;;5008448;28;20068;-68
2021/01/16 07:22:43;;;;;;;17.50;10.10;;;6.60;62.60;;;;;;5004778;28;20046;-69
2021/01/16 07:25:11;;;;;;;18.77;11.73;;;6.60;62.40;;;;;;5010441;28;20084;-68
2021/01/16 07:27:38;;;;;;;18.27;10.33;;;6.70;62.50;;;;;;5009979;28;20042;-68
2021/01/16 07:30:07;;;;;;;19.30;10.80;;;6.60;62.30;;;;;;5002470;28;20030;-68
2021/01/16 07:32:44;;;;;;;19.27;11.10;;;6.60;62.40;;;;;;5007924;28;20106;-68
2021/01/16 07:35:22;;;;;;;20.17;12.23;;;6.60;62.60;;;;;;5007205;28;20906;-69
2021/01/16 07:37:50;;;;;;;19.17;10.53;;;6.60;62.40;;;;;;5004780;28;20118;-69
2021/01/16 07:40:21;;;;;;;23.27;12.70;;;6.60;62.40;;;;;;5010195;28;20024;-70
2021/01/16 07:43:01;;;;;;;18.93;11.40;;;6.60;62.40;;;;;;5005920;28;20509;-70
2021/01/16 07:45:29;;;;;;;19.17;11.57;;;6.50;62.30;;;;;;5009233;28;20436;-70
2021/01/16 07:47:57;;;;;;;21.00;12.20;;;6.60;62.30;;;;;;5003234;28;20498;-70
2021/01/16 07:50:31;;;;;;;19.50;11.27;;;6.60;62.20;;;;;;5008333;28;20125;-70
2021/01/16 07:52:59;;;;;;;19.07;11.33;;;6.60;62.10;;;;;;5009305;28;20040;-70
2021/01/16 07:55:34;;;;;;;20.83;13.03;;;6.60;62.10;;;;;;5008507;28;20034;-69
2021/01/16 07:58:19;;;;;;;20.63;12.40;;;6.60;62.00;;;;;;5009742;28;20052;-70
2021/01/16 08:00:52;;;;;;;20.87;12.23;;;6.60;61.90;;;;;;5001148;28;20030;-70
2021/01/16 08:03:46;;;;;;;20.83;12.10;;;6.60;61.80;;;;;;5007581;28;20030;-71
2021/01/16 08:06:24;;;;;;;22.30;12.60;;;6.50;61.80;;;;;;5006238;28;20128;-71
2021/01/16 08:08:55;;;;;;;19.83;11.50;;;6.60;61.90;;;;;;5008550;28;20026;-70
2021/01/16 08:11:27;;;;;;;19.40;11.00;;;6.60;61.70;;;;;;5007927;28;20037;-70
2021/01/16 08:14:01;;;;;;;18.50;11.83;;;6.60;61.70;;;;;;5005943;28;20546;-70
2021/01/16 08:16:27;;;;;;;;;;;6.60;62.30;;;;;;5010136;28;20024;-70
2021/01/16 08:19:24;;;;;;;20.03;9.93;;;6.50;61.50;;;;;;5007566;28;19921;-72
2021/01/16 08:21:55;;;;;;;19.90;11.33;;;6.50;61.40;;;;;;5007394;28;20049;-70
2021/01/16 08:24:25;;;;;;;18.60;11.77;;;6.50;61.60;;;;;;5009728;28;20345;-70
2021/01/16 08:26:56;;;;;;;16.87;10.07;;;6.50;61.70;;;;;;5013057;28;20212;-69
2021/01/16 08:29:22;;;;;;;19.17;11.63;;;6.50;61.70;;;;;;5008207;28;20034;-70
2021/01/16 08:31:48;;;;;;;19.53;12.73;;;6.60;61.70;;;;;;5007153;28;20496;-69
2021/01/16 08:34:53;;;;;;;17.87;10.93;;;6.60;61.50;;;;;;5006948;28;20108;-70
2021/01/16 08:37:33;;;;;;;21.60;12.30;;;6.70;61.30;;;;;;5007364;28;20076;-71
2021/01/16 08:40:03;;;;;;;21.13;12.20;;;6.70;61.30;;;;;;5010287;28;20049;-70
2021/01/16 08:42:29;;;;;;;20.57;11.47;;;6.70;61.40;;;;;;5009028;28;20041;-70
2021/01/16 08:44:57;;;;;;;23.30;13.77;;;6.70;61.00;;;;;;5012093;28;20033;-69
2021/01/16 08:47:23;;;;;;;19.30;10.57;;;6.60;61.10;;;;;;5014203;28;20076;-70
2021/01/16 08:49:49;;;;;;;20.70;11.70;;;6.60;61.10;;;;;;5007224;28;20030;-69
2021/01/16 08:52:34;;;;;;;21.57;12.53;;;6.50;61.00;;;;;;5009153;28;20041;-71
2021/01/16 08:55:01;;;;;;;21.07;12.67;;;6.50;61.40;;;;;;5012524;28;20030;-70
2021/01/16 08:57:37;;;;;;;16.77;11.13;;;6.50;61.40;;;;;;5028844;28;20029;-70
2021/01/16 09:00:22;;;;;;;18.10;11.40;;;6.50;61.40;;;;;;5005720;28;20109;-70
2021/01/16 09:03:12;;;;;;;16.77;11.47;;;6.50;61.30;;;;;;5004213;28;20149;-69
2021/01/16 09:05:38;;;;;;;20.33;13.30;;;6.60;61.60;;;;;;5007983;28;20046;-70
2021/01/16 09:08:24;;;;;;;23.63;13.83;;;6.60;61.40;;;;;;5011217;28;20037;-70
2021/01/16 09:10:51;;;;;;;23.43;14.03;;;6.70;60.70;;;;;;5006820;28;20100;-70
2021/01/16 09:13:25;;;;;;;23.47;12.60;;;6.70;60.80;;;;;;5002747;28;20034;-70
2021/01/16 09:15:51;;;;;;;19.70;12.70;;;6.70;60.70;;;;;;5008001;28;20468;-69
2021/01/16 09:18:17;;;;;;;20.80;12.27;;;6.70;60.80;;;;;;5008725;28;20096;-69
2021/01/16 09:20:54;;;;;;;24.77;14.27;;;6.70;60.80;;;;;;5009254;28;20495;-72
2021/01/16 09:23:27;;;;;;;22.97;13.37;;;6.70;60.50;;;;;;5009073;28;20034;-70
2021/01/16 09:25:55;;;;;;;22.50;13.30;;;6.70;60.40;;;;;;5009445;28;20483;-70
2021/01/16 09:28:48;;;;;;;20.30;11.80;;;6.70;60.40;;;;;;5004882;28;20160;-70
2021/01/16 09:31:38;;;;;;;22.95;12.77;;;6.80;60.30;;;;;;5006569;28;20133;-70
2021/01/16 09:34:22;;;;;;;19.77;13.03;;;6.80;60.30;;;;;;5004549;28;20030;-70
2021/01/16 09:36:49;;;;;;;20.55;12.30;;;6.70;60.20;;;;;;5009138;28;20107;-70
2021/01/16 09:39:20;;;;;;;20.53;12.37;;;6.80;60.30;;;;;;5005930;28;20037;-70
2021/01/16 09:41:48;;;;;;;20.73;12.63;;;6.80;60.30;;;;;;5019015;28;20034;-70
2021/01/16 09:44:14;;;;;;;19.90;13.23;;;6.90;60.00;;;;;;5012545;28;20042;-69
2021/01/16 09:46:41;;;;;;;21.03;12.70;;;6.90;59.60;;;;;;5012781;28;20551;-69
2021/01/16 09:49:10;;;;;;;23.63;13.60;;;6.90;59.70;;;;;;5000459;28;20468;-69
2021/01/16 09:51:37;;;;;;;19.53;12.20;;;6.90;59.60;;;;;;5011712;28;20030;-70
2021/01/16 09:54:29;;;;;;;18.57;11.87;;;7.00;59.50;;;;;;5011500;28;20034;-69
2021/01/16 09:56:56;;;;;;;23.70;14.00;;;7.00;59.50;;;;;;4996940;28;20030;-69
2021/01/16 09:59:24;;;;;;;23.77;14.43;;;7.00;59.40;;;;;;5011224;28;20053;-70
2021/01/16 10:02:09;;;;;;;24.53;13.53;;;7.00;59.30;;;;;;5012754;28;20033;-69
2021/01/16 10:04:38;;;;;;;22.40;13.23;;;7.10;59.50;;;;;;5011125;28;20072;-69
2021/01/16 10:07:15;;;;;;;25.13;14.13;;;7.10;59.40;;;;;;5012011;28;20113;-71
2021/01/16 10:09:49;;;;;;;20.57;12.67;;;7.10;58.70;;;;;;5011730;28;20057;-69
2021/01/16 10:12:32;;;;;;;;;;;7.10;59.40;;;;;;5010814;28;20423;-71
2021/01/16 10:15:01;;;;;;;23.27;13.68;;;7.20;58.60;;;;;;5005386;28;20322;-71
2021/01/16 10:17:29;;;;;;;21.27;12.33;;;7.10;58.60;;;;;;5010886;28;20030;-70
2021/01/16 10:20:05;;;;;;;18.70;10.87;;;7.10;58.80;;;;;;5011367;28;20443;-70
2021/01/16 10:22:33;;;;;;;20.30;11.30;;;7.10;58.90;;;;;;5011516;28;20121;-70
2021/01/16 10:25:00;;;;;;;18.97;11.67;;;7.10;58.90;;;;;;5007946;28;20034;-70
2021/01/16 10:27:43;;;;;;;21.00;13.17;;;7.10;58.30;;;;;;5009760;28;20060;-70
2021/01/16 10:30:30;;;;;;;23.30;12.97;;;7.10;57.70;;;;;;5011877;28;20078;-70
2021/01/16 10:32:56;;;;;;;23.77;14.57;;;7.10;57.80;;;;;;5004037;28;20029;-69
2021/01/16 10:35:28;;;;;;;23.50;13.50;;;7.10;57.80;;;;;;4998308;28;20026;-69
2021/01/16 10:37:56;;;;;;;21.17;12.40;;;7.20;57.80;;;;;;5000462;28;20045;-70
2021/01/16 10:40:23;;;;;;;21.70;12.53;;;7.20;57.60;;;;;;5003836;28;20109;-70
2021/01/16 10:42:52;;;;;;;21.90;13.40;;;7.20;57.50;;;;;;5023168;28;20053;-73
2021/01/16 10:45:20;;;;;;;22.93;14.03;;;7.20;57.40;;;;;;4998639;28;20042;-70
2021/01/16 10:47:46;;;;;;;22.93;13.23;;;7.20;57.50;;;;;;5006201;28;20036;-69
2021/01/16 10:50:22;;;;;;;22.23;13.47;;;7.20;56.80;;;;;;4989007;28;20049;-71
2021/01/16 10:53:03;;;;;;;21.83;12.53;;;7.20;56.70;;;;;;5006285;28;20722;-69
2021/01/16 10:55:54;;;;;;;22.87;14.23;;;7.20;56.20;;;;;;5001048;28;20053;-70
2021/01/16 10:58:27;;;;;;;22.50;12.43;;;7.10;56.30;;;;;;5006809;28;20030;-70
2021/01/16 11:00:58;;;;;;;23.67;14.40;;;7.20;56.30;;;;;;4993518;28;20121;-70
2021/01/16 11:03:26;;;;;;;31.47;17.83;;;7.20;56.30;;;;;;5003908;28;20483;-69
2021/01/16 11:05:53;;;;;;;36.60;17.80;;;7.20;55.70;;;;;;4992935;28;20034;-69
2021/01/16 11:08:26;;;;;;;33.57;17.73;;;7.20;56.00;;;;;;4994197;28;20034;-69
2021/01/16 11:10:53;;;;;;;23.73;13.80;;;7.30;56.00;;;;;;4999117;28;20121;-69
2021/01/16 11:13:32;;;;;;;22.53;12.87;;;7.20;55.70;;;;;;5001419;28;20026;-69
2021/01/16 11:16:20;;;;;;;21.43;13.30;;;7.20;55.20;;;;;;5008333;28;20112;-70
2021/01/16 11:18:47;;;;;;;22.60;13.10;;;7.20;55.80;;;;;;5001543;28;20071;-70
2021/01/16 11:21:36;;;;;;;20.63;11.70;;;7.20;54.80;;;;;;5004731;28;20041;-70
2021/01/16 11:24:14;;;;;;;21.90;13.17;;;7.20;54.70;;;;;;5004560;28;20084;-70
2021/01/16 11:26:47;;;;;;;20.13;11.27;;;7.10;54.90;;;;;;5006637;28;20021;-69
2021/01/16 11:29:17;;;;;;;;;;;7.10;55.50;;;;;;5003484;28;20060;-70
2021/01/16 11:31:48;;;;;;;19.43;11.67;;;7.10;54.70;;;;;;5000124;28;20000;-69
2021/01/16 11:34:21;;;;;;;19.43;10.47;;;7.10;54.50;;;;;;4995895;28;20041;-69
2021/01/16 11:37:02;;;;;;;18.15;9.18;;;7.10;54.70;;;;;;4996129;28;20384;-70
2021/01/16 11:39:40;;;;;;;18.20;10.27;;;7.10;54.60;;;;;;5004817;28;20325;-70
2021/01/16 11:42:07;;;;;;;19.77;11.67;;;7.20;54.50;;;;;;4993621;28;20088;-71
2021/01/16 11:45:00;;;;;;;20.50;11.27;;;7.20;54.70;;;;;;5002721;28;20026;-71
2021/01/16 11:47:28;;;;;;;17.07;10.20;;;7.20;54.60;;;;;;4991740;28;20468;-72
2021/01/16 11:49:55;;;;;;;22.77;12.00;;;7.20;54.30;;;;;;4994534;28;20117;-72
2021/01/16 11:52:21;;;;;;;23.77;12.90;;;7.20;54.60;;;;;;5003305;28;20045;-72
2021/01/16 11:54:48;;;;;;;23.57;12.57;;;7.30;54.40;;;;;;5009798;28;20026;-73
2021/01/16 11:57:18;;;;;;;21.53;12.97;;;7.30;53.80;;;;;;5005533;28;20129;-73
2021/01/16 11:59:44;;;;;;;31.63;14.03;;;7.30;54.10;;;;;;4998340;28;20108;-72
2021/01/16 12:02:19;;;;;;;23.70;12.43;;;7.30;54.10;;;;;;4995646;28;20034;-72
2021/01/16 12:04:46;;;;;;;21.70;12.10;;;7.40;54.50;;;;;;5001879;28;20136;-72
2021/01/16 12:07:13;;;;;;;23.90;14.10;;;7.30;54.10;;;;;;5006842;28;20033;-71
2021/01/16 12:09:43;;;;;;;22.73;13.33;;;7.40;54.30;;;;;;5006830;28;20104;-72
2021/01/16 12:12:10;;;;;;;23.10;13.23;;;7.40;54.50;;;;;;5009354;28;20317;-72
2021/01/16 12:14:37;;;;;;;20.70;11.40;;;7.40;54.30;;;;;;5007675;28;20037;-71
2021/01/16 12:17:11;;;;;;;18.20;10.10;;;7.40;54.60;;;;;;5009481;28;20034;-72
2021/01/16 12:19:37;;;;;;;17.40;10.52;;;7.40;54.60;;;;;;5002698;28;20025;-72
2021/01/16 12:22:05;;;;;;;17.53;9.60;;;7.40;53.90;;;;;;4990376;28;20058;-72
2021/01/16 12:24:31;;;;;;;19.50;10.37;;;7.40;53.60;;;;;;5008157;28;20044;-72
2021/01/16 12:27:00;;;;;;;16.77;10.00;;;7.30;53.70;;;;;;5004101;28;20483;-72
2021/01/16 12:29:38;;;;;;;15.70;9.03;;;7.30;54.00;;;;;;5006542;28;20133;-71
2021/01/16 12:32:12;;;;;;;16.37;9.57;;;7.20;54.20;;;;;;5008050;28;20188;-72
2021/01/16 12:34:53;;;;;;;18.43;9.80;;;7.20;54.30;;;;;;5001985;28;20029;-72
2021/01/16 12:37:30;;;;;;;17.87;10.17;;;7.20;54.60;;;;;;5006736;28;20479;-72
2021/01/16 12:39:57;;;;;;;17.43;9.97;;;7.20;54.50;;;;;;5001286;28;20483;-75
2021/01/16 12:42:23;;;;;;;18.13;10.03;;;7.20;54.20;;;;;;4993232;28;20318;-72
2021/01/16 12:44:49;;;;;;;17.80;10.20;;;7.20;54.10;;;;;;4986378;28;20038;-73
2021/01/16 12:47:20;;;;;;;17.92;9.35;;;7.20;54.00;;;;;;4981473;28;20035;-70
2021/01/16 12:49:51;;;;;;;15.47;8.90;;;7.20;53.80;;;;;;5003361;28;20030;-72
2021/01/16 12:52:27;;;;;;;18.97;9.93;;;7.20;53.80;;;;;;5007609;28;20034;-73
2021/01/16 12:55:08;;;;;;;14.60;8.77;;;7.20;53.90;;;;;;5006175;28;20092;-71
2021/01/16 12:57:47;;;;;;;15.77;9.33;;;7.30;54.20;;;;;;5002968;28;20120;-72
2021/01/16 13:00:18;;;;;;;16.70;8.87;;;7.30;54.00;;;;;;5006020;28;20095;-71